Time;durP1;ratioP1;P1;durP2;ratioP2;P2;SDS_P1;SDS_P2;PMS_P1;PMS_P2;Temp;Humidity;BMP_temperature;BMP_pressure;BME280_temperature;BME280_humidity;BME280_pressure;Samples;Min_cycle;Max_cycle;Signal;HPM_P1;HPM_P2
2023/06/06 00:01:27;;;;;;;6.35;5.60;;;;;;;11.56;81.94;102223.66;6249222;22;20336;-79
2023/06/06 00:03:55;;;;;;;6.47;5.82;;;;;;;11.53;82.00;102213.78;6249762;22;20013;-78
2023/06/06 00:06:24;;;;;;;6.85;5.80;;;;;;;11.51;82.54;102226.78;6249536;22;20023;-77
2023/06/06 00:08:52;;;;;;;8.43;5.93;;;;;;;11.44;82.79;102219.66;6247422;22;20017;-77
2023/06/06 00:11:20;;;;;;;9.73;6.32;;;;;;;11.46;82.93;102217.34;6247957;22;20016;-77
2023/06/06 00:13:50;;;;;;;6.32;5.70;;;;;;;11.41;82.71;102215.16;6249463;22;20013;-77
2023/06/06 00:16:17;;;;;;;7.35;5.05;;;;;;;11.40;82.82;102221.63;6248904;22;20016;-77
2023/06/06 00:18:50;;;;;;;6.55;5.53;;;;;;;11.39;83.05;102220.13;6249565;22;20012;-77
2023/06/06 00:21:17;;;;;;;10.32;5.75;;;;;;;11.38;83.25;102225.88;6249493;22;20453;-76
2023/06/06 00:23:45;;;;;;;8.30;6.13;;;;;;;11.34;83.37;102213.34;6222343;22;20431;-77
2023/06/06 00:26:11;;;;;;;10.23;6.07;;;;;;;11.33;83.44;102213.75;6247707;22;20017;-78
2023/06/06 00:28:40;;;;;;;8.70;6.43;;;;;;;11.31;83.98;102210.75;6249679;22;20426;-77
2023/06/06 00:31:07;;;;;;;6.55;5.93;;;;;;;11.29;83.48;102207.75;6248828;22;20047;-77
2023/06/06 00:33:33;;;;;;;11.90;5.55;;;;;;;11.29;83.59;102210.41;6249519;22;20013;-76
2023/06/06 00:36:00;;;;;;;7.57;6.00;;;;;;;11.25;83.99;102209.72;6248493;22;20073;-77
2023/06/06 00:38:26;;;;;;;7.00;5.95;;;;;;;11.20;84.85;102208.28;6249574;22;20084;-77
2023/06/06 00:40:53;;;;;;;11.90;6.05;;;;;;;11.18;84.58;102215.19;6249346;22;20016;-77
2023/06/06 00:43:20;;;;;;;11.15;6.32;;;;;;;11.16;85.00;102210.28;6249635;22;20019;-78
2023/06/06 00:45:48;;;;;;;6.95;6.25;;;;;;;11.12;85.11;102208.81;6248620;22;20024;-77
2023/06/06 00:48:16;;;;;;;8.80;6.45;;;;;;;11.11;85.31;102216.06;6222028;22;20021;-77
2023/06/06 00:50:43;;;;;;;11.73;6.53;;;;;;;11.09;85.84;102213.06;6247776;22;20103;-77
2023/06/06 00:53:10;;;;;;;10.95;6.30;;;;;;;11.07;85.30;102209.28;6247542;22;20470;-77
2023/06/06 00:55:38;;;;;;;11.27;6.10;;;;;;;11.05;85.41;102212.38;6222347;22;20031;-77
2023/06/06 00:58:06;;;;;;;7.13;6.43;;;;;;;11.05;85.76;102222.28;6247960;22;20477;-77
2023/06/06 01:00:33;;;;;;;12.63;6.88;;;;;;;11.05;86.04;102219.59;6248951;22;20022;-76
2023/06/06 01:03:03;;;;;;;8.77;6.78;;;;;;;11.01;85.82;102219.66;6249816;22;20071;-77
2023/06/06 01:05:30;;;;;;;8.30;6.07;;;;;;;10.98;86.39;102220.47;6249630;22;20016;-76
2023/06/06 01:07:57;;;;;;;10.25;6.68;;;;;;;10.97;86.38;102222.38;6250525;22;20020;-77
2023/06/06 01:10:24;;;;;;;6.95;6.28;;;;;;;10.96;86.28;102218.22;6249482;22;20334;-77
2023/06/06 01:13:20;;;;;;;7.00;6.30;;;;;;;10.95;86.45;102219.38;6222492;22;20071;-77
2023/06/06 01:15:57;;;;;;;9.52;6.95;;;;;;;10.93;86.33;102216.34;6247110;22;20339;-77
2023/06/06 01:18:25;;;;;;;6.75;5.93;;;;;;;10.91;87.05;102215.25;6222767;22;20658;-78
2023/06/06 01:20:52;;;;;;;9.07;6.22;;;;;;;10.88;87.30;102216.06;6249281;22;20036;-78
2023/06/06 01:23:19;;;;;;;9.25;6.70;;;;;;;10.86;87.63;102213.03;6247320;22;20134;-78
2023/06/06 01:25:48;;;;;;;10.70;6.22;;;;;;;10.84;87.60;102216.13;6249310;22;20529;-76
2023/06/06 01:28:16;;;;;;;9.30;6.65;;;;;;;10.83;87.74;102219.94;6248892;22;20735;-77
2023/06/06 01:30:44;;;;;;;8.25;6.45;;;;;;;10.80;87.89;102220.00;6222157;22;20020;-78
2023/06/06 01:33:39;;;;;;;7.68;6.57;;;;;;;10.80;86.89;102214.66;6247198;22;20021;-77
2023/06/06 01:36:21;;;;;;;7.60;6.15;;;;;;;10.76;87.70;102212.09;6243329;22;20109;-76
2023/06/06 01:38:55;;;;;;;10.13;6.90;;;;;;;10.75;88.01;102215.16;6249334;22;20091;-77
2023/06/06 01:41:23;;;;;;;10.32;7.13;;;;;;;10.73;88.48;102212.88;6249959;22;20023;-76
2023/06/06 01:43:51;;;;;;;8.98;6.20;;;;;;;10.73;88.09;102212.13;6246749;22;20480;-77
2023/06/06 01:46:20;;;;;;;9.20;6.57;;;;;;;10.72;88.20;102219.38;6247022;22;20020;-77
2023/06/06 01:48:47;;;;;;;11.82;6.60;;;;;;;10.71;88.21;102214.44;6248740;22;20023;-77
2023/06/06 01:51:14;;;;;;;10.23;7.15;;;;;;;10.67;88.60;102204.59;6247165;22;20023;-77
2023/06/06 01:53:40;;;;;;;10.30;7.30;;;;;;;10.64;88.96;102205.41;6247115;22;20047;-76
2023/06/06 01:56:12;;;;;;;9.27;7.38;;;;;;;10.61;88.83;102208.88;6221692;22;20025;-77
2023/06/06 01:58:42;;;;;;;9.82;6.82;;;;;;;10.60;89.03;102207.38;6246601;22;20017;-76
2023/06/06 02:01:09;;;;;;;7.90;6.50;;;;;;;10.60;89.22;102209.28;6221643;22;20024;-76
2023/06/06 02:03:36;;;;;;;9.18;6.80;;;;;;;10.56;89.69;102211.25;6248762;22;20389;-76
2023/06/06 02:06:04;;;;;;;9.43;6.68;;;;;;;10.56;88.99;102217.31;6249139;22;20021;-77
2023/06/06 02:08:32;;;;;;;8.75;6.43;;;;;;;10.55;89.52;102215.06;6247430;22;20079;-76
2023/06/06 02:10:59;;;;;;;7.15;6.45;;;;;;;10.53;89.75;102206.72;6246669;22;20035;-77
2023/06/06 02:13:26;;;;;;;9.55;6.60;;;;;;;10.50;89.75;102210.19;6247184;22;20047;-77
2023/06/06 02:15:53;;;;;;;11.65;6.53;;;;;;;10.48;89.73;102207.91;6246806;22;20024;-77
2023/06/06 02:18:19;;;;;;;10.35;6.47;;;;;;;10.47;89.72;102203.00;6246987;22;20083;-76
2023/06/06 02:20:46;;;;;;;8.95;7.07;;;;;;;10.45;90.26;102202.66;6247001;22;20463;-77
2023/06/06 02:23:13;;;;;;;12.15;6.40;;;;;;;10.44;90.14;102198.47;6248527;22;20020;-77
2023/06/06 02:25:40;;;;;;;8.30;6.30;;;;;;;10.42;90.18;102203.44;6248159;22;20028;-76
2023/06/06 02:28:07;;;;;;;10.98;6.88;;;;;;;10.41;90.61;102207.25;6248834;22;20363;-76
2023/06/06 02:30:34;;;;;;;13.90;6.88;;;;;;;10.40;90.54;102203.13;6246912;22;20017;-76
2023/06/06 02:33:01;;;;;;;9.10;6.60;;;;;;;10.36;90.77;102200.50;6248978;22;20075;-77
2023/06/06 02:35:28;;;;;;;8.45;6.85;;;;;;;10.36;91.02;102197.84;6248422;22;20065;-76
2023/06/06 02:37:54;;;;;;;9.57;6.18;;;;;;;10.35;90.74;102197.09;6246677;22;20458;-76
2023/06/06 02:40:21;;;;;;;9.98;6.82;;;;;;;10.32;91.10;102197.16;6246234;22;20017;-76
2023/06/06 02:42:48;;;;;;;12.30;7.15;;;;;;;10.31;91.49;102196.38;6246748;22;20037;-76
2023/06/06 02:45:14;;;;;;;7.90;6.30;;;;;;;10.31;91.08;102193.72;6248470;22;20036;-76
2023/06/06 02:47:41;;;;;;;10.18;6.57;;;;;;;10.31;91.02;102192.97;6246647;22;20481;-76
2023/06/06 02:50:10;;;;;;;10.75;6.45;;;;;;;10.26;91.29;102202.16;6246653;22;20017;-76
2023/06/06 02:52:38;;;;;;;9.18;6.85;;;;;;;10.26;91.42;102196.09;6221202;22;20421;-76
2023/06/06 02:55:05;;;;;;;11.45;6.57;;;;;;;10.24;91.49;102201.81;6220959;22;20100;-76
2023/06/06 02:57:32;;;;;;;11.30;6.65;;;;;;;10.21;91.36;102202.59;6246790;22;20044;-76
2023/06/06 02:59:59;;;;;;;8.98;6.60;;;;;;;10.19;91.30;102204.13;6246694;22;20025;-76
2023/06/06 03:02:27;;;;;;;8.02;6.15;;;;;;;10.16;91.64;102203.03;6246375;22;20099;-76
2023/06/06 03:04:55;;;;;;;6.50;5.90;;;;;;;10.15;91.78;102206.09;6246348;22;20020;-76
2023/06/06 03:07:22;;;;;;;9.57;6.82;;;;;;;10.14;91.81;102215.22;6248322;22;20084;-76
2023/06/06 03:09:48;;;;;;;8.80;6.18;;;;;;;10.13;92.03;102216.38;6246247;22;20478;-76
2023/06/06 03:12:19;;;;;;;8.30;6.63;;;;;;;10.10;91.92;102209.19;6247719;22;20421;-76
2023/06/06 03:14:46;;;;;;;7.28;5.72;;;;;;;10.09;91.94;102213.00;6248366;22;20031;-76
2023/06/06 03:17:26;;;;;;;8.57;5.97;;;;;;;10.08;92.53;102208.84;6248160;22;20027;-76
2023/06/06 03:19:53;;;;;;;13.20;6.38;;;;;;;10.07;92.04;102213.41;6250022;22;20020;-77
2023/06/06 03:22:20;;;;;;;8.85;6.32;;;;;;;10.04;92.08;102208.88;6247583;22;20020;-76
2023/06/06 03:24:49;;;;;;;7.03;6.28;;;;;;;10.04;92.75;102216.84;6247278;22;20020;-76
2023/06/06 03:27:18;;;;;;;15.93;6.35;;;;;;;10.04;92.18;102216.84;6247820;22;20021;-76
2023/06/06 03:29:45;;;;;;;12.15;6.72;;;;;;;10.03;92.19;102228.66;6247475;22;20088;-76
2023/06/06 03:32:12;;;;;;;7.60;6.10;;;;;;;10.02;92.80;102224.47;6247780;22;20023;-76
2023/06/06 03:34:39;;;;;;;9.05;6.03;;;;;;;10.00;92.44;102224.13;6247580;22;20025;-76
2023/06/06 03:37:06;;;;;;;7.72;6.03;;;;;;;9.99;92.80;102223.41;6247518;22;20401;-76
2023/06/06 03:39:34;;;;;;;11.65;6.32;;;;;;;9.99;92.69;102222.66;6221984;22;20012;-76
2023/06/06 03:42:02;;;;;;;8.95;6.43;;;;;;;10.00;92.61;102216.16;6248044;22;20036;-76
2023/06/06 03:44:28;;;;;;;8.60;6.15;;;;;;;9.99;92.54;102217.31;6249678;22;20023;-76
2023/06/06 03:46:55;;;;;;;8.35;5.40;;;;;;;10.00;92.73;102216.16;6247847;22;20533;-76
2023/06/06 03:49:22;;;;;;;9.95;6.40;;;;;;;10.02;93.14;102211.19;6247764;22;20017;-75
2023/06/06 03:51:48;;;;;;;7.57;6.40;;;;;;;10.02;92.68;102219.16;6247689;22;20016;-76
2023/06/06 03:54:15;;;;;;;9.02;5.85;;;;;;;10.02;93.06;102219.91;6247296;22;20027;-76
2023/06/06 03:56:42;;;;;;;11.18;5.68;;;;;;;10.03;93.06;102212.69;6247687;22;20046;-75
2023/06/06 03:59:12;;;;;;;8.70;5.75;;;;;;;10.04;92.61;102214.94;6247691;22;20047;-76
2023/06/06 04:01:40;;;;;;;9.07;5.90;;;;;;;10.06;92.83;102214.56;6247796;22;20028;-76
2023/06/06 04:04:09;;;;;;;6.80;5.70;;;;;;;10.08;93.00;102217.56;6247342;22;20215;-75
2023/06/06 04:06:37;;;;;;;7.72;5.80;;;;;;;10.10;92.62;102217.91;6247570;22;20144;-75
2023/06/06 04:09:08;;;;;;;8.73;5.82;;;;;;;10.12;92.97;102212.97;6246758;22;20020;-75
2023/06/06 04:11:35;;;;;;;8.88;6.07;;;;;;;10.13;92.88;102214.47;6249285;22;20059;-75
2023/06/06 04:14:02;;;;;;;7.75;5.80;;;;;;;10.16;92.81;102220.91;6247679;22;20075;-75
2023/06/06 04:16:29;;;;;;;6.97;5.60;;;;;;;10.19;92.53;102217.44;6249173;22;20890;-75
2023/06/06 04:18:56;;;;;;;8.25;6.07;;;;;;;10.21;92.77;102221.25;6249374;22;20045;-77
2023/06/06 04:21:23;;;;;;;9.18;6.57;;;;;;;10.25;92.90;102218.53;6247962;22;20020;-75
2023/06/06 04:23:49;;;;;;;10.57;6.15;;;;;;;10.30;92.56;102213.50;6247447;22;20059;-75
2023/06/06 04:26:24;;;;;;;9.80;5.72;;;;;;;10.38;92.29;102218.75;6249362;22;20035;-75
2023/06/06 04:28:58;;;;;;;6.78;6.07;;;;;;;10.44;92.30;102222.44;6249519;22;20017;-75
2023/06/06 04:31:29;;;;;;;10.70;6.55;;;;;;;10.48;91.94;102218.56;6247708;22;20534;-76
2023/06/06 04:33:56;;;;;;;6.88;5.50;;;;;;;10.53;91.83;102217.38;6247783;22;20430;-77
2023/06/06 04:36:25;;;;;;;9.77;6.00;;;;;;;10.57;91.03;102220.72;6246749;22;20017;-77
2023/06/06 04:39:00;;;;;;;13.10;5.88;;;;;;;10.80;90.92;102225.31;6247546;22;20434;-76
2023/06/06 04:41:30;;;;;;;8.77;6.03;;;;;;;11.37;89.05;102225.13;6249392;22;20489;-74
2023/06/06 04:44:04;;;;;;;10.20;6.38;;;;;;;11.94;86.32;102226.72;6223406;22;20056;-77
2023/06/06 04:46:31;;;;;;;12.80;6.10;;;;;;;12.61;84.11;102225.25;6248083;22;20016;-77
2023/06/06 04:49:01;;;;;;;13.63;5.85;;;;;;;14.10;77.56;102225.94;6249303;22;20754;-77
2023/06/06 04:51:29;;;;;;;8.05;5.88;;;;;;;15.27;72.00;102219.53;6221830;22;20020;-77
2023/06/06 04:54:01;;;;;;;11.88;6.22;;;;;;;15.89;68.98;102227.69;6247704;22;20048;-77
2023/06/06 04:56:29;;;;;;;6.57;5.65;;;;;;;16.48;65.28;102233.13;6249244;22;20100;-75
2023/06/06 04:59:05;;;;;;;6.75;5.85;;;;;;;16.78;64.01;102234.28;6249123;22;20020;-78
2023/06/06 05:01:36;;;;;;;7.65;5.60;;;;;;;16.91;62.89;102234.88;6249820;22;20075;-77
2023/06/06 05:04:05;;;;;;;11.38;5.47;;;;;;;17.27;61.92;102223.34;6249685;22;20192;-77
2023/06/06 05:06:33;;;;;;;6.10;5.50;;;;;;;17.67;60.07;102225.84;6247538;22;20477;-77
2023/06/06 05:09:03;;;;;;;16.50;6.07;;;;;;;17.88;59.67;102227.59;6247709;22;20020;-77
2023/06/06 05:11:30;;;;;;;11.13;6.10;;;;;;;18.24;58.50;102229.41;6249468;22;20063;-77
2023/06/06 05:13:56;;;;;;;12.57;6.63;;;;;;;18.36;58.18;102218.88;6248212;22;20016;-77
2023/06/06 05:16:23;;;;;;;8.73;6.20;;;;;;;18.14;57.92;102227.19;6249791;22;20027;-78
2023/06/06 05:18:49;;;;;;;9.48;5.82;;;;;;;18.08;57.85;102227.06;6250120;22;20024;-78
2023/06/06 05:21:17;;;;;;;11.10;6.20;;;;;;;17.89;57.88;102225.66;6246614;22;20425;-78
2023/06/06 05:23:44;;;;;;;7.80;6.35;;;;;;;16.92;60.41;102226.34;6247232;22;20056;-77
2023/06/06 05:26:11;;;;;;;12.13;6.88;;;;;;;16.79;61.52;102241.16;6248892;22;20469;-77
2023/06/06 05:28:38;;;;;;;8.63;6.18;;;;;;;17.00;61.21;102234.88;6222586;22;20016;-77
2023/06/06 05:31:08;;;;;;;11.95;6.28;;;;;;;17.13;61.05;102232.81;6250389;22;20059;-76
2023/06/06 05:33:40;;;;;;;8.30;6.32;;;;;;;17.34;60.53;102228.44;6248249;22;20052;-76
2023/06/06 05:36:07;;;;;;;9.07;6.00;;;;;;;17.55;60.19;102230.22;6247581;22;20024;-76
2023/06/06 05:38:33;;;;;;;8.82;5.82;;;;;;;17.76;59.27;102230.47;6250452;22;20047;-78
2023/06/06 05:41:00;;;;;;;8.20;5.97;;;;;;;17.58;59.47;102229.31;6250151;22;20456;-78
2023/06/06 05:43:28;;;;;;;8.73;5.75;;;;;;;17.81;59.08;102237.94;6249873;22;20017;-77
2023/06/06 05:45:54;;;;;;;11.52;5.88;;;;;;;17.14;60.84;102236.25;6250154;22;20037;-76
2023/06/06 05:48:21;;;;;;;9.02;6.30;;;;;;;17.36;61.43;102231.44;6249677;22;20012;-78
2023/06/06 05:50:48;;;;;;;7.95;6.38;;;;;;;17.87;59.72;102231.50;6248162;22;20023;-79
2023/06/06 05:53:14;;;;;;;12.32;5.88;;;;;;;17.90;59.52;102225.22;6249851;22;20017;-79
2023/06/06 05:55:41;;;;;;;8.73;5.93;;;;;;;18.19;59.22;102226.56;6249680;22;20457;-77
2023/06/06 05:58:07;;;;;;;9.93;5.95;;;;;;;17.92;59.36;102224.75;6248071;22;20053;-78
2023/06/06 06:00:35;;;;;;;9.75;5.50;;;;;;;17.87;59.86;102228.81;6250054;22;20071;-77
2023/06/06 06:03:02;;;;;;;10.20;6.43;;;;;;;17.73;60.09;102231.38;6249732;22;20465;-79
2023/06/06 06:05:29;;;;;;;6.50;5.88;;;;;;;17.65;60.64;102226.31;6249975;22;20019;-78
2023/06/06 06:08:00;;;;;;;11.50;6.00;;;;;;;17.48;60.88;102238.59;6250127;22;20351;-80
2023/06/06 06:10:32;;;;;;;7.55;6.22;;;;;;;17.17;61.23;102233.41;6249942;22;20020;-81
2023/06/06 06:12:59;;;;;;;6.65;5.95;;;;;;;17.14;62.19;102231.59;6248176;22;20036;-80
2023/06/06 06:15:26;;;;;;;6.97;6.28;;;;;;;17.28;61.77;102224.84;6249533;22;20020;-83
2023/06/06 06:17:55;;;;;;;8.60;5.85;;;;;;;17.16;61.58;102223.84;6247535;22;20043;-78
2023/06/06 06:20:22;;;;;;;9.63;6.25;;;;;;;17.28;61.88;102230.22;6247817;22;20095;-78
2023/06/06 06:22:49;;;;;;;9.57;6.05;;;;;;;17.19;61.64;102227.56;6248388;22;20020;-80
2023/06/06 06:25:19;;;;;;;10.45;5.80;;;;;;;17.12;62.10;102230.56;6249521;22;20021;-78
2023/06/06 06:27:47;;;;;;;7.38;5.28;;;;;;;17.19;62.49;102230.25;6249896;22;20016;-78
2023/06/06 06:30:14;;;;;;;8.73;5.45;;;;;;;17.15;62.47;102232.34;6247396;22;20399;-78
2023/06/06 06:32:44;;;;;;;10.45;5.88;;;;;;;17.20;61.72;102235.16;6249204;22;20028;-78
2023/06/06 06:35:11;;;;;;;13.50;5.95;;;;;;;17.05;62.83;102231.59;6249302;22;20092;-79
2023/06/06 06:37:39;;;;;;;7.88;5.65;;;;;;;17.25;62.45;102228.44;6248011;22;20079;-79
2023/06/06 06:40:09;;;;;;;8.02;5.78;;;;;;;17.27;62.13;102231.44;6222390;22;20047;-79
2023/06/06 06:42:41;;;;;;;6.20;5.60;;;;;;;17.17;62.57;102233.41;6248094;22;20032;-78
2023/06/06 06:45:23;;;;;;;6.50;5.68;;;;;;;17.31;62.07;102237.41;6248390;22;20197;-79
2023/06/06 06:47:50;;;;;;;11.77;6.07;;;;;;;17.46;61.40;102234.88;6250574;22;20012;-80
2023/06/06 06:50:17;;;;;;;8.38;5.78;;;;;;;17.44;60.75;102234.56;6248616;22;20048;-80
2023/06/06 06:52:43;;;;;;;13.57;6.00;;;;;;;17.41;61.05;102228.13;6251246;22;20084;-81
2023/06/06 06:55:10;;;;;;;7.25;5.68;;;;;;;17.54;61.10;102236.78;6250565;22;20442;-81
2023/06/06 06:57:38;;;;;;;8.05;5.80;;;;;;;17.47;61.09;102230.97;6250600;22;20088;-81
2023/06/06 07:00:14;;;;;;;6.70;6.10;;;;;;;17.64;61.91;102230.19;6250466;22;20466;-81
2023/06/06 07:02:44;;;;;;;9.65;5.93;;;;;;;17.71;61.18;102234.53;6250589;22;20027;-81
2023/06/06 07:05:11;;;;;;;9.88;5.85;;;;;;;17.68;60.36;102235.44;6250647;22;20075;-81
2023/06/06 07:07:52;;;;;;;9.45;5.75;;;;;;;17.72;60.97;102227.94;6250988;22;20375;-81
2023/06/06 07:10:22;;;;;;;6.75;5.63;;;;;;;17.80;60.38;102234.50;6251139;22;20017;-80
2023/06/06 07:12:50;;;;;;;5.93;5.22;;;;;;;17.83;60.53;102232.84;6251618;22;20458;-81
2023/06/06 07:15:21;;;;;;;8.23;4.90;;;;;;;17.92;59.92;102238.22;6248660;22;20027;-82
2023/06/06 07:17:49;;;;;;;7.60;6.03;;;;;;;18.06;60.02;102234.84;6249410;22;20027;-81
2023/06/06 07:20:19;;;;;;;6.72;5.68;;;;;;;18.26;59.54;102234.34;6250442;22;20017;-81
2023/06/06 07:22:46;;;;;;;7.82;5.70;;;;;;;18.30;59.08;102232.97;6249475;22;20020;-81
2023/06/06 07:25:14;;;;;;;8.73;5.30;;;;;;;18.44;58.90;102230.78;6248830;22;20095;-81
2023/06/06 07:27:41;;;;;;;6.75;4.93;;;;;;;18.50;58.80;102226.25;6251257;22;20009;-81
2023/06/06 07:30:12;;;;;;;7.00;5.28;;;;;;;18.49;58.50;102233.59;6250020;22;20364;-81
2023/06/06 07:32:43;;;;;;;5.33;4.80;;;;;;;18.41;58.29;102232.44;6251136;22;20462;-81
2023/06/06 07:35:11;;;;;;;6.57;4.97;;;;;;;18.50;58.19;102235.09;6249064;22;20020;-81
2023/06/06 07:37:38;;;;;;;6.40;5.13;;;;;;;18.59;58.29;102223.50;6250412;22;20409;-80
2023/06/06 07:40:07;;;;;;;21.52;5.13;;;;;;;18.82;58.06;102224.72;6250276;22;20012;-81
2023/06/06 07:42:40;;;;;;;8.15;5.57;;;;;;;19.08;56.87;102228.44;6248528;22;20017;-81
2023/06/06 07:45:07;;;;;;;8.48;5.78;;;;;;;19.22;56.04;102227.69;6250806;22;20019;-82
2023/06/06 07:47:33;;;;;;;6.22;5.07;;;;;;;19.43;56.28;102223.16;6248887;22;20096;-81
2023/06/06 07:50:02;;;;;;;5.85;5.22;;;;;;;19.58;55.30;102215.09;6249120;22;20346;-81
2023/06/06 07:52:30;;;;;;;8.40;5.30;;;;;;;19.57;55.60;102219.00;6248621;22;20027;-80
2023/06/06 07:54:58;;;;;;;7.10;5.15;;;;;;;19.59;55.39;102220.00;6250882;22;20017;-81
2023/06/06 07:57:26;;;;;;;8.60;5.60;;;;;;;19.63;55.17;102212.44;6248323;22;20453;-80
2023/06/06 07:59:54;;;;;;;6.88;5.25;;;;;;;19.82;54.80;102217.66;6250304;22;20019;-84
2023/06/06 08:02:21;;;;;;;5.53;4.63;;;;;;;20.01;54.55;102212.75;6248544;22;20021;-84
2023/06/06 08:04:47;;;;;;;5.60;5.07;;;;;;;20.08;53.54;102213.13;6248979;22;20028;-82
2023/06/06 08:07:15;;;;;;;8.73;5.00;;;;;;;20.15;53.73;102220.09;6248739;22;20047;-82
2023/06/06 08:09:43;;;;;;;6.80;5.65;;;;;;;20.25;53.72;102218.75;6248823;22;20016;-83
2023/06/06 08:12:11;;;;;;;6.03;5.40;;;;;;;20.44;53.64;102214.59;6250413;22;20020;-80
2023/06/06 08:14:38;;;;;;;7.55;5.20;;;;;;;20.52;52.80;102214.94;6250468;22;20016;-77
2023/06/06 08:17:06;;;;;;;8.90;5.32;;;;;;;20.64;53.25;102203.78;6250437;22;20016;-78
2023/06/06 08:19:33;;;;;;;10.23;4.72;;;;;;;20.83;52.64;102201.53;6250723;22;20080;-79
2023/06/06 08:22:04;;;;;;;13.07;5.18;;;;;;;21.02;51.92;102210.09;6250740;22;20025;-79
2023/06/06 08:24:31;;;;;;;16.95;5.85;;;;;;;21.03;51.09;102214.28;6223897;22;20024;-79
2023/06/06 08:26:58;;;;;;;8.57;5.47;;;;;;;21.10;51.35;102207.72;6250870;22;20435;-79
2023/06/06 08:29:25;;;;;;;6.93;5.35;;;;;;;21.12;51.21;102216.13;6249757;22;20067;-80
2023/06/06 08:31:53;;;;;;;5.88;5.25;;;;;;;21.14;51.03;102211.72;6248827;22;20027;-79
2023/06/06 08:34:23;;;;;;;7.85;4.88;;;;;;;21.17;51.12;102212.72;6250340;22;20431;-79
2023/06/06 08:36:50;;;;;;;5.57;5.00;;;;;;;21.37;50.78;102212.66;6223352;22;20020;-78
2023/06/06 08:39:18;;;;;;;9.45;5.25;;;;;;;21.46;50.60;102217.19;6250270;22;20020;-79
2023/06/06 08:41:50;;;;;;;10.27;5.13;;;;;;;21.82;49.73;102213.00;6223547;22;20017;-80
2023/06/06 08:44:22;;;;;;;8.48;5.05;;;;;;;21.95;49.70;102210.66;6248077;22;20016;-80
2023/06/06 08:46:51;;;;;;;17.23;5.18;;;;;;;22.13;49.67;102207.56;6249226;22;20370;-79
2023/06/06 08:49:19;;;;;;;8.73;5.03;;;;;;;22.34;49.45;102202.00;6250228;22;20060;-80
2023/06/06 08:51:50;;;;;;;5.32;4.82;;;;;;;22.32;48.56;102204.47;6251719;22;20362;-80
2023/06/06 08:54:20;;;;;;;8.30;5.22;;;;;;;22.38;48.07;102205.97;6250477;22;20020;-81
2023/06/06 08:56:47;;;;;;;10.75;5.60;;;;;;;22.45;47.42;102202.03;6249170;22;20450;-80
2023/06/06 08:59:15;;;;;;;6.65;5.10;;;;;;;22.55;47.98;102208.72;6247587;22;20079;-79
2023/06/06 09:01:43;;;;;;;7.07;5.47;;;;;;;22.45;47.68;102202.78;6249214;22;20044;-81
2023/06/06 09:04:13;;;;;;;7.45;5.28;;;;;;;22.61;47.79;102202.09;6250268;22;20024;-80
2023/06/06 09:06:43;;;;;;;6.45;4.95;;;;;;;22.82;47.44;102196.50;6250658;22;20461;-80
2023/06/06 09:09:11;;;;;;;7.97;5.18;;;;;;;22.81;47.16;102200.44;6249711;22;20020;-80
2023/06/06 09:11:39;;;;;;;10.40;5.35;;;;;;;23.01;46.70;102204.94;6249932;22;20020;-80
2023/06/06 09:14:05;;;;;;;5.97;5.30;;;;;;;22.99;46.21;102207.41;6250224;22;20017;-80
2023/06/06 09:16:32;;;;;;;6.47;5.10;;;;;;;23.09;46.46;102208.66;6250577;22;20453;-80
2023/06/06 09:19:01;;;;;;;6.30;5.47;;;;;;;23.36;45.58;102197.06;6248431;22;20023;-83
2023/06/06 09:21:29;;;;;;;6.68;4.60;;;;;;;23.60;46.19;102197.31;6248363;22;20078;-79
2023/06/06 09:23:56;;;;;;;6.75;4.75;;;;;;;23.59;44.73;102200.56;6250293;22;20016;-81
2023/06/06 09:26:23;;;;;;;11.55;5.40;;;;;;;23.63;44.97;102192.13;6251638;22;20016;-75
2023/06/06 09:28:50;;;;;;;9.00;5.18;;;;;;;23.74;44.75;102194.81;6250209;22;20044;-76
2023/06/06 09:31:32;;;;;;;5.88;4.88;;;;;;;23.92;44.99;102202.47;6249870;22;20025;-77
2023/06/06 09:33:59;;;;;;;9.00;5.20;;;;;;;24.00;43.72;102202.66;6250381;22;20012;-76
2023/06/06 09:36:28;;;;;;;7.28;5.20;;;;;;;24.04;44.14;102200.44;6249832;22;20017;-77
2023/06/06 09:39:11;;;;;;;7.95;5.10;;;;;;;24.16;44.42;102191.00;6248798;22;20019;-76
2023/06/06 09:41:46;;;;;;;5.30;4.90;;;;;;;24.35;43.90;102191.22;6249842;22;20071;-78
2023/06/06 09:44:24;;;;;;;7.78;5.75;;;;;;;24.29;43.99;102191.25;6247911;22;20024;-81
2023/06/06 09:47:01;;;;;;;6.88;5.43;;;;;;;24.37;44.32;102200.38;6250432;22;20020;-77
2023/06/06 09:49:36;;;;;;;8.98;5.95;;;;;;;24.51;43.75;102199.31;6249664;22;20012;-77
2023/06/06 09:52:06;;;;;;;8.73;5.10;;;;;;;24.57;43.77;102194.56;6250107;22;20092;-77
2023/06/06 09:54:33;;;;;;;7.95;5.47;;;;;;;24.63;43.69;102201.97;6250137;22;20089;-76
2023/06/06 09:57:13;;;;;;;5.90;5.38;;;;;;;24.91;42.97;102192.38;6249465;22;20099;-77
2023/06/06 09:59:40;;;;;;;11.57;5.47;;;;;;;24.79;42.97;102193.69;6253243;22;20020;-84
2023/06/06 10:02:10;;;;;;;8.40;5.28;;;;;;;24.86;42.75;102184.25;6249726;22;20017;-80
2023/06/06 10:04:38;;;;;;;7.13;5.67;;;;;;;24.83;43.08;102188.72;6250081;22;20013;-79
2023/06/06 10:07:05;;;;;;;7.55;5.60;;;;;;;24.88;42.49;102181.75;6247947;22;20709;-79
2023/06/06 10:09:32;;;;;;;12.73;6.25;;;;;;;24.89;42.60;102188.69;6249453;22;20414;-79
2023/06/06 10:12:00;;;;;;;18.77;5.60;;;;;;;24.91;43.27;102181.50;6249895;22;20021;-76
2023/06/06 10:14:28;;;;;;;8.15;5.63;;;;;;;24.99;42.12;102173.53;6249543;22;20468;-77
2023/06/06 10:16:55;;;;;;;6.20;5.60;;;;;;;24.96;42.50;102184.72;6250110;22;20021;-79
2023/06/06 10:19:24;;;;;;;12.38;5.25;;;;;;;25.12;42.81;102190.06;6250291;22;20104;-77
2023/06/06 10:21:52;;;;;;;11.10;5.78;;;;;;;25.16;42.11;102181.59;6251384;22;20024;-78
2023/06/06 10:24:18;;;;;;;7.70;5.47;;;;;;;25.18;42.25;102182.56;6250066;22;20041;-80
2023/06/06 10:26:53;;;;;;;6.50;5.18;;;;;;;25.18;41.95;102182.56;6251351;22;20016;-78
2023/06/06 10:29:32;;;;;;;7.88;5.20;;;;;;;25.40;42.00;102181.63;6249453;22;20023;-79
2023/06/06 10:32:15;;;;;;;5.93;5.05;;;;;;;25.41;40.93;102183.13;6251681;22;20020;-78
2023/06/06 10:34:47;;;;;;;6.03;5.30;;;;;;;25.54;41.09;102179.78;6251522;22;20013;-79
2023/06/06 10:37:14;;;;;;;8.18;6.22;;;;;;;25.57;41.05;102174.06;6248898;22;20017;-77
2023/06/06 10:39:47;;;;;;;7.57;6.13;;;;;;;25.46;41.20;102179.59;6248339;22;20021;-77
2023/06/06 10:42:14;;;;;;;9.15;6.07;;;;;;;25.60;41.09;102172.25;6250695;22;20020;-78
2023/06/06 10:44:44;;;;;;;6.15;5.60;;;;;;;25.79;41.44;102173.09;6251280;22;20036;-79
2023/06/06 10:47:27;;;;;;;8.55;5.65;;;;;;;25.92;40.70;102175.19;6250925;22;20017;-78
2023/06/06 10:50:13;;;;;;;7.40;5.78;;;;;;;26.06;41.31;102171.28;6249313;22;20027;-79
2023/06/06 10:53:06;;;;;;;8.10;6.15;;;;;;;25.97;40.59;102170.94;6250948;22;20028;-79
2023/06/06 10:55:33;;;;;;;9.85;5.75;;;;;;;26.03;40.70;102177.78;6249263;22;20068;-79
2023/06/06 10:58:02;;;;;;;17.85;14.88;;;;;;;26.14;40.40;102168.72;6248558;22;20071;-80
2023/06/06 11:00:34;;;;;;;6.15;5.63;;;;;;;26.17;40.80;102162.25;6250295;22;20019;-79
2023/06/06 11:03:05;;;;;;;8.02;6.22;;;;;;;26.26;40.11;102175.53;6251187;22;20513;-81
2023/06/06 11:05:32;;;;;;;;;;;;;;;26.35;41.03;102171.75;6250039;22;20071;-78
2023/06/06 11:08:02;;;;;;;6.35;5.55;;;;;;;26.43;40.09;102165.16;6250644;22;19943;-79
2023/06/06 11:10:46;;;;;;;8.20;5.50;;;;;;;26.60;39.37;102156.00;6248695;22;20021;-78
2023/06/06 11:13:26;;;;;;;6.20;5.50;;;;;;;26.62;40.04;102161.69;6249590;22;20024;-78
2023/06/06 11:15:56;;;;;;;15.05;5.15;;;;;;;26.79;39.58;102159.44;6250854;22;20012;-78
2023/06/06 11:18:39;;;;;;;8.38;5.13;;;;;;;26.79;38.89;102156.72;6248614;22;20103;-78
2023/06/06 11:21:06;;;;;;;7.40;5.28;;;;;;;26.75;39.33;102153.53;6250660;22;20032;-78
2023/06/06 11:23:42;;;;;;;6.65;5.60;;;;;;;26.76;39.40;102155.03;6250356;22;20028;-78
2023/06/06 11:26:09;;;;;;;7.70;5.45;;;;;;;26.65;39.50;102153.19;6248816;22;20020;-77
2023/06/06 11:28:37;;;;;;;9.45;5.85;;;;;;;26.62;38.68;102145.28;6250909;22;20024;-77
2023/06/06 11:31:05;;;;;;;8.93;5.57;;;;;;;26.67;38.97;102153.41;6248995;22;20088;-78
2023/06/06 11:33:35;;;;;;;9.05;5.35;;;;;;;26.66;39.20;102149.19;6249242;22;20025;-81